Time;durP1;ratioP1;P1;durP2;ratioP2;P2;SDS_P1;SDS_P2;PMS_P1;PMS_P2;Temp;Humidity;BMP_temperature;BMP_pressure;BME280_temperature;BME280_humidity;BME280_pressure;Samples;Min_cycle;Max_cycle;Signal;HPM_P1;HPM_P2
2022/12/26 00:01:26;;;;;;;2.88;1.80;;;17.10;92.40;;;;;;5071318;28;20020;-85
2022/12/26 00:03:52;;;;;;;7.47;2.30;;;17.10;92.40;;;;;;5071660;28;20658;-85
2022/12/26 00:06:24;;;;;;;3.35;1.90;;;17.10;92.40;;;;;;5071699;28;20034;-84
2022/12/26 00:08:49;;;;;;;3.75;2.03;;;17.10;92.40;;;;;;5070265;28;20512;-85
2022/12/26 00:11:16;;;;;;;4.18;1.80;;;17.10;92.40;;;;;;5071243;28;20025;-84
2022/12/26 00:13:42;;;;;;;4.28;1.80;;;17.10;92.40;;;;;;5072659;28;20502;-85
2022/12/26 00:16:10;;;;;;;3.25;1.90;;;17.10;92.30;;;;;;5071280;28;20055;-85
2022/12/26 00:18:36;;;;;;;5.43;1.80;;;17.20;92.30;;;;;;5063393;28;20459;-86
2022/12/26 00:21:02;;;;;;;5.40;2.10;;;17.10;92.30;;;;;;5056785;28;20059;-85
2022/12/26 00:23:27;;;;;;;6.30;2.40;;;17.10;92.20;;;;;;5065474;28;20055;-86
2022/12/26 00:25:53;;;;;;;7.85;2.25;;;17.10;92.20;;;;;;5067586;28;20024;-85
2022/12/26 00:28:18;;;;;;;6.88;2.50;;;17.10;92.20;;;;;;5078278;28;20043;-85
2022/12/26 00:30:44;;;;;;;6.03;2.55;;;17.10;92.20;;;;;;5068200;28;20040;-84
2022/12/26 00:33:09;;;;;;;5.50;2.70;;;17.20;92.20;;;;;;5071582;28;20035;-84
2022/12/26 00:35:35;;;;;;;6.70;2.45;;;17.20;92.20;;;;;;5070884;28;20487;-84
2022/12/26 00:38:00;;;;;;;6.15;2.78;;;17.10;92.10;;;;;;5079220;28;20023;-84
2022/12/26 00:40:26;;;;;;;4.82;2.97;;;17.20;92.10;;;;;;5070831;28;20020;-84
2022/12/26 00:42:52;;;;;;;8.63;3.30;;;17.10;92.00;;;;;;5087218;28;20431;-84
2022/12/26 00:45:17;;;;;;;7.57;2.88;;;17.10;92.00;;;;;;5071799;28;20027;-85
2022/12/26 00:47:43;;;;;;;10.60;3.35;;;17.10;92.00;;;;;;5071838;28;20025;-84
2022/12/26 00:50:09;;;;;;;13.00;3.28;;;17.20;92.00;;;;;;5070773;28;20028;-84
2022/12/26 00:52:34;;;;;;;6.82;3.60;;;17.20;91.90;;;;;;5072270;28;20025;-85
2022/12/26 00:55:00;;;;;;;13.50;3.55;;;17.10;91.90;;;;;;5072086;28;20059;-83
2022/12/26 00:57:25;;;;;;;8.82;3.13;;;17.10;91.80;;;;;;5070825;28;20102;-85
2022/12/26 00:59:51;;;;;;;11.90;3.80;;;17.10;91.80;;;;;;5079817;28;20453;-85
2022/12/26 01:05:00;;;;;;;9.65;3.85;;;17.10;91.80;;;;;;5072180;28;20043;-84
2022/12/26 01:07:26;;;;;;;11.30;3.17;;;17.10;91.80;;;;;;5070985;28;20401;-84
2022/12/26 01:09:51;;;;;;;14.25;4.35;;;17.20;91.90;;;;;;5078495;28;20060;-84
2022/12/26 01:12:17;;;;;;;14.55;4.40;;;17.20;91.90;;;;;;5065962;28;20029;-84
2022/12/26 01:14:42;;;;;;;12.90;3.90;;;17.10;91.80;;;;;;5056346;28;20043;-84
2022/12/26 01:17:08;;;;;;;10.57;4.00;;;17.10;91.80;;;;;;5052292;28;20108;-84
2022/12/26 01:19:33;;;;;;;10.52;4.38;;;17.20;91.80;;;;;;5054388;28;20453;-84
2022/12/26 01:21:59;;;;;;;10.13;4.13;;;17.10;91.70;;;;;;5089692;28;20028;-85
2022/12/26 01:24:24;;;;;;;9.52;3.83;;;17.20;91.70;;;;;;5091163;28;20016;-83
2022/12/26 01:26:50;;;;;;;11.48;4.38;;;17.10;91.60;;;;;;5075592;28;20052;-84
2022/12/26 01:29:16;;;;;;;11.98;3.95;;;17.20;91.60;;;;;;5075678;28;20029;-85
2022/12/26 01:31:41;;;;;;;14.20;4.30;;;17.10;91.90;;;;;;5074290;28;20025;-85
2022/12/26 01:34:07;;;;;;;16.45;4.15;;;17.10;91.60;;;;;;5084015;28;20035;-84
2022/12/26 01:36:33;;;;;;;13.23;4.03;;;17.10;91.50;;;;;;5094624;28;20047;-85
2022/12/26 01:38:58;;;;;;;16.80;3.70;;;17.10;91.60;;;;;;5094573;28;20021;-85
2022/12/26 01:41:24;;;;;;;14.38;4.50;;;17.10;91.70;;;;;;5083600;28;20031;-85
2022/12/26 01:44:01;;;;;;;12.45;3.97;;;17.20;91.80;;;;;;5075692;28;20048;-84
2022/12/26 01:46:27;;;;;;;17.52;3.53;;;17.10;91.80;;;;;;5067459;28;20025;-85
2022/12/26 01:48:55;;;;;;;16.42;4.93;;;17.20;91.80;;;;;;5054301;28;20032;-85
2022/12/26 01:51:24;;;;;;;18.77;4.63;;;17.10;91.70;;;;;;5069072;28;20032;-85
2022/12/26 01:53:55;;;;;;;12.57;4.70;;;17.10;91.70;;;;;;5074003;28;20056;-85
2022/12/26 01:56:22;;;;;;;;;;;17.10;91.70;;;;;;5075636;28;20083;-85
2022/12/26 01:59:16;;;;;;;16.50;3.70;;;17.10;91.60;;;;;;5071460;28;20391;-85
2022/12/26 02:01:44;;;;;;;11.50;4.15;;;17.10;91.70;;;;;;5065951;28;20032;-85
2022/12/26 02:06:59;;;;;;;13.95;4.38;;;17.10;91.60;;;;;;5075445;28;20080;-84
2022/12/26 02:09:24;;;;;;;18.45;4.28;;;17.10;91.60;;;;;;5065392;28;20017;-85
2022/12/26 02:12:03;;;;;;;11.70;4.30;;;17.10;91.60;;;;;;5078577;28;20042;-85
2022/12/26 02:14:30;;;;;;;11.07;4.03;;;17.10;91.60;;;;;;5086723;28;20111;-85
2022/12/26 02:16:56;;;;;;;18.88;4.68;;;17.10;91.60;;;;;;5073627;28;20021;-85
2022/12/26 02:19:51;;;;;;;9.93;4.53;;;17.10;91.50;;;;;;5074748;28;20385;-85
2022/12/26 02:22:39;;;;;;;10.55;4.07;;;17.10;91.50;;;;;;5077847;28;20028;-84
2022/12/26 02:25:39;;;;;;;8.52;3.92;;;17.10;91.50;;;;;;5067987;23;20056;-89
2022/12/26 02:28:16;;;;;;;12.63;4.22;;;17.10;91.50;;;;;;5053514;28;20107;-87
2022/12/26 02:30:48;;;;;;;13.57;4.35;;;17.10;91.50;;;;;;5019486;28;20033;-87
2022/12/26 02:33:32;;;;;;;11.98;3.60;;;17.10;91.50;;;;;;5038355;28;20057;-88
2022/12/26 02:36:04;;;;;;;9.00;3.90;;;17.10;91.50;;;;;;5050645;28;20025;-88
2022/12/26 02:39:03;;;;;;;14.00;4.30;;;17.10;91.50;;;;;;5043667;28;20406;-86
2022/12/26 02:41:52;;;;;;;12.68;3.88;;;17.10;91.50;;;;;;5036797;28;20025;-88
2022/12/26 02:47:43;;;;;;;13.00;5.10;;;17.10;91.50;;;;;;5054456;28;20505;-87
2022/12/26 03:13:35;;;;;;;;;;;17.10;91.40;;;;;;5008212;28;20072;-88
2022/12/26 03:18:57;;;;;;;10.00;3.83;;;17.10;91.40;;;;;;5014994;28;20534;-87
2022/12/26 03:21:34;;;;;;;9.20;3.92;;;17.10;91.40;;;;;;4995389;28;20038;-88
2022/12/26 03:24:00;;;;;;;9.18;4.10;;;17.10;91.40;;;;;;4992065;28;20034;-88
2022/12/26 03:26:40;;;;;;;10.50;4.18;;;17.10;91.40;;;;;;5010981;28;20026;-87
2022/12/26 03:32:08;;;;;;;7.55;3.30;;;17.10;91.40;;;;;;5016877;28;20088;-87
2022/12/26 03:34:40;;;;;;;9.70;3.50;;;17.10;91.40;;;;;;5001061;28;20105;-87
2022/12/26 03:37:33;;;;;;;10.23;3.80;;;17.10;91.40;;;;;;5011586;28;20053;-87
2022/12/26 04:19:36;;;;;;;6.20;3.25;;;17.10;91.20;;;;;;4991407;28;20033;-88
2022/12/26 04:45:20;;;;;;;5.82;2.90;;;17.10;91.10;;;;;;5034608;28;20040;-88
2022/12/26 04:50:29;;;;;;;5.13;2.83;;;17.10;91.00;;;;;;5048089;28;20032;-88
2022/12/26 04:52:58;;;;;;;4.93;2.65;;;17.10;91.00;;;;;;5036238;28;20025;-87
2022/12/26 04:55:29;;;;;;;6.45;2.83;;;17.10;91.00;;;;;;5033779;28;20518;-88
2022/12/26 04:57:55;;;;;;;10.73;3.00;;;17.10;91.00;;;;;;5036478;28;20116;-87
2022/12/26 05:00:23;;;;;;;7.25;2.88;;;17.10;91.00;;;;;;5035035;28;20041;-87
2022/12/26 05:11:18;;;;;;;4.75;2.70;;;17.10;90.90;;;;;;5051627;28;20344;-88
2022/12/26 05:13:44;;;;;;;5.15;2.42;;;17.10;91.00;;;;;;5049378;28;20498;-88
2022/12/26 05:29:59;;;;;;;9.63;2.67;;;17.00;90.90;;;;;;5054486;28;20397;-86
2022/12/26 05:35:08;;;;;;;9.82;3.15;;;17.10;90.90;;;;;;5035948;28;20525;-89
2022/12/26 05:37:34;;;;;;;5.88;2.83;;;17.10;90.90;;;;;;5055694;28;20029;-88
2022/12/26 05:40:00;;;;;;;4.82;2.33;;;17.10;90.90;;;;;;5038125;28;20029;-88
2022/12/26 05:42:25;;;;;;;5.20;2.65;;;17.10;90.90;;;;;;5054230;28;20398;-85
2022/12/26 05:44:51;;;;;;;9.68;2.88;;;17.10;90.90;;;;;;5054289;28;20078;-88
2022/12/26 05:47:16;;;;;;;6.68;2.72;;;17.10;90.90;;;;;;5054130;28;20110;-88
2022/12/26 05:49:42;;;;;;;9.73;2.42;;;17.10;90.90;;;;;;5041229;28;20176;-89
2022/12/26 05:52:08;;;;;;;5.90;2.45;;;17.10;91.00;;;;;;5034138;28;20080;-87
2022/12/26 05:54:33;;;;;;;6.78;3.00;;;17.10;91.10;;;;;;5034045;28;20509;-87
2022/12/26 05:57:00;;;;;;;5.13;2.70;;;17.10;91.10;;;;;;5033967;28;20048;-87
2022/12/26 05:59:26;;;;;;;3.97;1.95;;;17.10;91.50;;;;;;5034034;28;20025;-88
2022/12/26 06:01:51;;;;;;;6.07;2.67;;;17.10;91.30;;;;;;5033864;28;20022;-88
2022/12/26 06:04:17;;;;;;;3.55;2.20;;;17.10;91.20;;;;;;5035151;28;20482;-87
2022/12/26 06:06:42;;;;;;;5.88;2.20;;;17.20;91.30;;;;;;5038350;28;20017;-88
2022/12/26 06:09:08;;;;;;;4.40;2.63;;;17.20;91.30;;;;;;5037293;28;20049;-88
2022/12/26 06:11:34;;;;;;;6.25;2.53;;;17.20;91.30;;;;;;5042714;28;20056;-88
2022/12/26 06:14:00;;;;;;;4.05;2.55;;;17.20;91.40;;;;;;5048663;28;20017;-86
2022/12/26 06:16:26;;;;;;;3.45;2.30;;;17.20;91.40;;;;;;5053259;28;20044;-89
2022/12/26 06:18:54;;;;;;;6.68;2.55;;;17.20;91.40;;;;;;5054617;28;20033;-87
2022/12/26 06:21:20;;;;;;;3.20;1.70;;;17.20;91.40;;;;;;5050230;28;20107;-86
2022/12/26 06:23:47;;;;;;;5.40;2.17;;;17.20;91.40;;;;;;5040398;28;20383;-87
2022/12/26 06:26:12;;;;;;;5.82;2.88;;;17.20;91.40;;;;;;5041850;28;20033;-88
2022/12/26 06:28:39;;;;;;;9.23;2.33;;;17.20;91.70;;;;;;5050910;28;20028;-87
2022/12/26 06:31:11;;;;;;;5.57;2.33;;;17.20;91.40;;;;;;5033269;28;20032;-87
2022/12/26 06:33:37;;;;;;;6.40;2.10;;;17.20;91.40;;;;;;5034691;28;20052;-86
2022/12/26 06:36:05;;;;;;;3.55;1.98;;;17.20;91.50;;;;;;5033123;28;20064;-87
2022/12/26 06:38:30;;;;;;;4.97;2.67;;;17.20;91.60;;;;;;5039070;28;20485;-87
2022/12/26 06:40:56;;;;;;;5.35;2.17;;;17.10;91.60;;;;;;5052984;28;20092;-87
2022/12/26 06:43:21;;;;;;;5.70;2.55;;;17.10;91.70;;;;;;5040603;28;20032;-86
2022/12/26 06:45:57;;;;;;;4.97;3.22;;;17.10;91.70;;;;;;5033224;28;20036;-87
2022/12/26 06:48:23;;;;;;;3.72;2.25;;;17.10;91.80;;;;;;5038045;28;20078;-88
2022/12/26 06:50:49;;;;;;;5.53;1.90;;;17.10;91.80;;;;;;5037990;28;20117;-87
2022/12/26 06:53:15;;;;;;;8.82;2.35;;;17.10;91.80;;;;;;5036178;28;20462;-88
2022/12/26 06:55:40;;;;;;;13.73;2.80;;;17.10;92.00;;;;;;5040479;28;20185;-88
2022/12/26 06:58:06;;;;;;;9.93;2.72;;;17.10;92.10;;;;;;5040241;28;20490;-87
2022/12/26 07:00:31;;;;;;;15.98;3.20;;;17.10;92.00;;;;;;5047036;28;20032;-91
2022/12/26 07:02:57;;;;;;;15.07;2.72;;;17.10;91.90;;;;;;5049043;28;20116;-88
2022/12/26 07:05:22;;;;;;;8.88;2.20;;;17.10;91.90;;;;;;5044276;28;20033;-88
2022/12/26 07:07:51;;;;;;;6.32;2.22;;;17.10;91.80;;;;;;5053011;28;20044;-88
2022/12/26 07:10:18;;;;;;;10.13;2.58;;;17.10;91.80;;;;;;5052536;28;20048;-86
2022/12/26 07:12:45;;;;;;;4.28;2.20;;;17.10;91.80;;;;;;5052992;28;20394;-87
2022/12/26 07:15:11;;;;;;;6.90;2.20;;;17.00;91.80;;;;;;5039344;28;20033;-87
2022/12/26 07:17:36;;;;;;;5.22;2.40;;;17.00;91.80;;;;;;5033470;28;20021;-87
2022/12/26 07:20:04;;;;;;;9.32;2.30;;;17.00;91.80;;;;;;5034799;28;20109;-87
2022/12/26 07:22:29;;;;;;;7.30;2.35;;;17.00;91.80;;;;;;5032469;28;20029;-87
2022/12/26 07:24:55;;;;;;;2.97;1.80;;;17.00;91.70;;;;;;5032349;28;20037;-87
2022/12/26 07:27:20;;;;;;;11.02;2.10;;;17.00;91.70;;;;;;5035602;28;20513;-86
2022/12/26 07:29:46;;;;;;;4.80;2.28;;;17.00;91.70;;;;;;5045133;28;20103;-87
2022/12/26 07:32:12;;;;;;;10.82;2.28;;;17.00;91.70;;;;;;5034105;28;20032;-88
2022/12/26 07:34:38;;;;;;;3.38;2.13;;;17.00;91.70;;;;;;5036695;28;20040;-87
2022/12/26 07:37:03;;;;;;;4.63;1.85;;;16.90;91.60;;;;;;5051395;28;20075;-89
2022/12/26 07:39:29;;;;;;;4.45;1.80;;;16.90;91.60;;;;;;5047353;28;20017;-88
2022/12/26 07:41:57;;;;;;;5.32;2.17;;;16.90;91.60;;;;;;5033048;28;20530;-88
2022/12/26 07:44:27;;;;;;;5.93;2.00;;;16.90;91.60;;;;;;5041955;28;20104;-87
2022/12/26 07:46:54;;;;;;;2.65;1.90;;;16.90;91.60;;;;;;5052587;28;20047;-88
2022/12/26 07:49:20;;;;;;;3.38;1.67;;;16.90;91.60;;;;;;5043983;28;20029;-88
2022/12/26 07:51:45;;;;;;;7.90;1.95;;;16.90;91.60;;;;;;5032982;28;20029;-88
2022/12/26 07:54:12;;;;;;;10.25;2.50;;;16.90;91.60;;;;;;5032669;28;20021;-87
2022/12/26 07:56:38;;;;;;;4.65;2.00;;;16.90;91.60;;;;;;5047597;28;20026;-88
2022/12/26 07:59:04;;;;;;;5.43;2.10;;;16.90;91.60;;;;;;5034850;28;20022;-88
2022/12/26 08:01:29;;;;;;;7.78;1.73;;;16.90;91.60;;;;;;5042987;28;20028;-88
2022/12/26 08:03:55;;;;;;;3.85;2.03;;;16.90;91.60;;;;;;5043525;28;20137;-88
2022/12/26 08:06:20;;;;;;;3.35;1.70;;;16.90;91.60;;;;;;5053272;28;20052;-89
2022/12/26 08:08:47;;;;;;;5.90;2.05;;;16.90;91.60;;;;;;5045715;28;20065;-88
2022/12/26 08:11:21;;;;;;;6.78;1.95;;;16.90;91.60;;;;;;5044728;28;20036;-87
2022/12/26 08:13:47;;;;;;;2.47;1.45;;;16.90;91.60;;;;;;5047216;28;20029;-87
2022/12/26 08:16:14;;;;;;;3.83;1.98;;;16.80;91.60;;;;;;5052695;28;20036;-88
2022/12/26 08:18:40;;;;;;;4.80;1.92;;;16.90;91.60;;;;;;5052980;28;20049;-88
2022/12/26 08:21:06;;;;;;;2.72;1.90;;;16.90;91.60;;;;;;5037940;28;20033;-87
2022/12/26 08:23:33;;;;;;;3.58;2.22;;;16.90;91.50;;;;;;5032961;28;20157;-86
2022/12/26 08:26:02;;;;;;;3.30;1.77;;;16.90;91.40;;;;;;5036365;28;20079;-88
2022/12/26 08:28:28;;;;;;;9.32;2.03;;;16.90;91.50;;;;;;5039096;28;20029;-87
2022/12/26 08:30:53;;;;;;;3.00;2.10;;;16.90;91.50;;;;;;5038817;28;20386;-87
2022/12/26 08:33:19;;;;;;;4.00;1.70;;;16.90;91.60;;;;;;5051149;28;20375;-86
2022/12/26 08:35:44;;;;;;;14.73;1.92;;;17.00;91.70;;;;;;5047386;28;20025;-86
2022/12/26 08:38:10;;;;;;;2.03;1.75;;;17.00;91.50;;;;;;5037823;28;20559;-84
2022/12/26 08:40:35;;;;;;;5.57;2.03;;;17.00;91.60;;;;;;5039210;28;20024;-83
2022/12/26 08:43:01;;;;;;;4.57;1.85;;;17.00;91.60;;;;;;5041071;28;20406;-85
2022/12/26 08:45:26;;;;;;;16.92;2.63;;;17.00;91.50;;;;;;5036201;28;20031;-87
2022/12/26 08:47:53;;;;;;;11.15;2.42;;;17.10;91.70;;;;;;5040302;28;20021;-83
2022/12/26 08:50:19;;;;;;;5.07;2.17;;;17.10;91.60;;;;;;5041607;28;20034;-84
2022/12/26 08:52:45;;;;;;;6.50;2.53;;;17.10;91.60;;;;;;5043234;28;20029;-82
2022/12/26 08:55:10;;;;;;;5.68;2.50;;;17.10;91.50;;;;;;5048699;28;20711;-83
2022/12/26 08:57:36;;;;;;;4.45;2.63;;;17.10;91.40;;;;;;5041310;28;20021;-84
2022/12/26 09:00:06;;;;;;;8.68;2.40;;;17.10;91.30;;;;;;5036626;28;20479;-84
2022/12/26 09:02:32;;;;;;;6.60;2.03;;;17.10;91.20;;;;;;5043057;28;20017;-81
2022/12/26 09:04:57;;;;;;;35.83;7.70;;;17.20;91.20;;;;;;5048380;28;20035;-88
2022/12/26 09:07:24;;;;;;;38.25;9.63;;;17.40;92.70;;;;;;5033487;28;20384;-85
2022/12/26 09:09:49;;;;;;;25.50;7.05;;;17.70;90.50;;;;;;5048357;28;20120;-87
2022/12/26 09:12:15;;;;;;;22.75;5.32;;;17.50;90.80;;;;;;5043381;28;20549;-88
2022/12/26 09:14:40;;;;;;;18.45;4.55;;;17.40;91.10;;;;;;5034060;28;20494;-87
2022/12/26 09:17:06;;;;;;;26.50;4.30;;;17.30;91.30;;;;;;5031771;28;20503;-92
2022/12/26 09:19:32;;;;;;;25.80;4.90;;;17.30;91.40;;;;;;5040589;28;20021;-88
2022/12/26 09:24:42;;;;;;;22.70;6.25;;;17.30;91.50;;;;;;5047422;28;20036;-88
2022/12/26 09:27:08;;;;;;;29.20;5.15;;;17.20;91.60;;;;;;5035858;28;20025;-86
2022/12/26 09:29:34;;;;;;;30.63;5.05;;;17.20;91.60;;;;;;5046920;28;20119;-87
2022/12/26 09:31:59;;;;;;;25.17;5.00;;;17.20;91.60;;;;;;5042959;28;20041;-88
2022/12/26 09:34:25;;;;;;;24.23;5.25;;;17.20;91.60;;;;;;5031564;28;20106;-84
2022/12/26 09:36:50;;;;;;;20.63;4.82;;;17.20;91.60;;;;;;5038058;28;20142;-86
2022/12/26 09:39:16;;;;;;;23.90;4.35;;;17.20;92.00;;;;;;5044263;28;20029;-88
2022/12/26 09:41:59;;;;;;;20.70;4.63;;;17.20;91.60;;;;;;5050662;28;20017;-88
2022/12/26 09:44:49;;;;;;;18.55;4.70;;;17.20;91.70;;;;;;5048741;28;20398;-86
2022/12/26 09:47:31;;;;;;;16.45;4.88;;;17.20;91.70;;;;;;5071194;28;20021;-87
2022/12/26 09:50:12;;;;;;;15.07;3.55;;;17.20;91.60;;;;;;5059404;28;20493;-86
2022/12/26 09:52:56;;;;;;;20.38;3.97;;;17.20;91.70;;;;;;5055833;28;20091;-88
2022/12/26 09:55:43;;;;;;;21.83;4.18;;;17.20;91.70;;;;;;5047991;28;20074;-88
2022/12/26 09:58:23;;;;;;;11.68;3.67;;;17.30;91.80;;;;;;5046393;28;20078;-88
2022/12/26 10:01:06;;;;;;;16.52;3.53;;;17.20;91.80;;;;;;5048512;28;20017;-88
2022/12/26 10:03:38;;;;;;;14.68;3.28;;;17.30;91.80;;;;;;5041460;28;20033;-88
2022/12/26 10:06:06;;;;;;;9.57;3.47;;;17.20;91.80;;;;;;5047047;28;20483;-87
2022/12/26 10:08:54;;;;;;;20.83;3.67;;;17.20;91.80;;;;;;5058064;28;20029;-88
2022/12/26 10:12:01;;;;;;;10.93;3.03;;;17.20;91.80;;;;;;5047280;28;20029;-89
2022/12/26 10:14:54;;;;;;;15.68;3.58;;;17.20;91.90;;;;;;5051223;28;20120;-87
2022/12/26 10:17:41;;;;;;;14.38;3.58;;;17.20;91.80;;;;;;5049542;28;20546;-88
2022/12/26 10:20:34;;;;;;;12.13;3.33;;;17.20;91.90;;;;;;5049162;28;20150;-87
2022/12/26 10:23:40;;;;;;;10.25;2.55;;;17.20;91.90;;;;;;5049311;28;20096;-89
2022/12/26 10:26:12;;;;;;;4.63;2.83;;;17.20;91.90;;;;;;4952861;28;20094;-88
2022/12/26 10:28:46;;;;;;;7.85;2.60;;;17.20;92.00;;;;;;4972099;28;21639;-88
2022/12/26 10:31:25;;;;;;;9.48;2.25;;;17.20;92.00;;;;;;4953866;29;20071;-88
2022/12/26 10:34:15;;;;;;;9.88;2.95;;;17.20;92.10;;;;;;4962886;28;20193;-88
2022/12/26 10:36:47;;;;;;;;;;;17.20;92.10;;;;;;4957245;28;20047;-88
2022/12/26 10:39:49;;;;;;;7.45;3.00;;;17.20;92.20;;;;;;4966899;28;19945;-88
2022/12/26 10:42:37;;;;;;;7.72;2.67;;;17.20;92.20;;;;;;4947926;28;20035;-88
2022/12/26 10:45:16;;;;;;;8.63;2.40;;;17.20;92.20;;;;;;4964720;28;20166;-88
2022/12/26 10:47:45;;;;;;;9.18;2.60;;;17.20;92.20;;;;;;4954378;28;20138;-86
2022/12/26 10:50:17;;;;;;;7.57;2.60;;;17.20;92.20;;;;;;4960144;28;20034;-88
2022/12/26 10:52:43;;;;;;;7.88;2.75;;;17.20;92.20;;;;;;4953953;28;20031;-88
2022/12/26 10:55:14;;;;;;;19.13;2.70;;;17.30;92.10;;;;;;4966903;28;20122;-86
2022/12/26 10:57:42;;;;;;;11.57;3.00;;;17.30;92.20;;;;;;5030076;28;20029;-86
2022/12/26 11:00:17;;;;;;;6.88;2.35;;;17.30;92.10;;;;;;5049891;28;20018;-87
2022/12/26 11:02:43;;;;;;;14.90;3.42;;;17.30;92.10;;;;;;5033850;28;20080;-86
2022/12/26 11:05:11;;;;;;;12.90;2.42;;;17.30;92.20;;;;;;5036599;28;20465;-88
2022/12/26 11:07:49;;;;;;;12.70;2.97;;;17.30;92.50;;;;;;5053108;28;20021;-89
2022/12/26 11:10:21;;;;;;;12.77;3.13;;;17.30;92.70;;;;;;5046261;28;20422;-88
2022/12/26 11:12:53;;;;;;;18.52;2.80;;;17.20;93.00;;;;;;5044396;28;20024;-89
2022/12/26 11:15:40;;;;;;;16.08;4.10;;;17.30;92.80;;;;;;5052560;28;20029;-88
2022/12/26 11:18:32;;;;;;;13.88;2.88;;;17.30;93.00;;;;;;5035999;28;20167;-88
2022/12/26 11:21:16;;;;;;;10.07;3.58;;;17.30;92.80;;;;;;5040361;28;20502;-88
2022/12/26 11:24:02;;;;;;;8.35;2.80;;;17.30;92.80;;;;;;5042593;28;20025;-88
2022/12/26 11:26:28;;;;;;;6.03;3.20;;;17.30;92.80;;;;;;5038196;28;20063;-89
2022/12/26 11:29:13;;;;;;;8.98;2.83;;;17.30;92.90;;;;;;5043290;28;20047;-88
2022/12/26 11:32:12;;;;;;;8.82;2.85;;;17.30;92.80;;;;;;5042045;28;20025;-88
2022/12/26 11:34:45;;;;;;;7.50;2.53;;;17.30;92.80;;;;;;5038813;28;20025;-89
2022/12/26 11:37:25;;;;;;;10.65;3.50;;;17.30;92.90;;;;;;5038826;28;20051;-86
2022/12/26 11:39:51;;;;;;;7.90;3.25;;;17.30;92.80;;;;;;5052214;28;20032;-88
2022/12/26 11:42:20;;;;;;;7.93;2.95;;;17.30;92.80;;;;;;5043994;28;20035;-88
2022/12/26 11:44:51;;;;;;;15.00;3.53;;;17.30;92.70;;;;;;5044656;28;20068;-88
2022/12/26 11:47:20;;;;;;;15.80;3.25;;;17.20;92.60;;;;;;5052769;28;20059;-88
2022/12/26 11:49:49;;;;;;;10.57;3.33;;;17.20;92.60;;;;;;5042421;28;20040;-87
2022/12/26 11:52:34;;;;;;;11.52;3.88;;;17.20;92.50;;;;;;5036900;28;20483;-88
2022/12/26 11:54:59;;;;;;;12.93;4.03;;;17.20;92.50;;;;;;5036800;28;20133;-89
2022/12/26 11:57:32;;;;;;;16.63;4.28;;;17.20;92.50;;;;;;5051076;28;20057;-86
2022/12/26 12:00:16;;;;;;;15.50;4.07;;;17.20;92.50;;;;;;5034738;28;20013;-89
2022/12/26 12:02:42;;;;;;;22.50;5.65;;;17.20;92.50;;;;;;5044928;28;20026;-89
2022/12/26 12:05:42;;;;;;;22.30;5.85;;;17.20;92.60;;;;;;5032848;28;20030;-88
2022/12/26 12:08:14;;;;;;;30.10;7.60;;;17.20;92.60;;;;;;5003776;28;20051;-89
2022/12/26 12:10:54;;;;;;;34.22;6.88;;;17.20;92.60;;;;;;5033364;28;20136;-89
2022/12/26 12:13:35;;;;;;;24.80;6.63;;;17.20;92.60;;;;;;5043545;28;20021;-88
2022/12/26 12:16:16;;;;;;;31.60;8.45;;;17.20;92.50;;;;;;5061480;28;20028;-87
2022/12/26 12:19:19;;;;;;;37.65;8.18;;;17.30;92.60;;;;;;5049530;28;20032;-87
2022/12/26 12:21:59;;;;;;;33.70;8.63;;;17.30;92.60;;;;;;5040419;28;20017;-89
2022/12/26 12:24:43;;;;;;;36.22;9.13;;;17.30;92.70;;;;;;5047714;28;20025;-86
2022/12/26 12:27:29;;;;;;;33.13;8.88;;;17.30;92.70;;;;;;5047918;28;20036;-87
2022/12/26 12:30:06;;;;;;;43.83;9.38;;;17.30;92.70;;;;;;5042480;28;20045;-88
2022/12/26 12:32:53;;;;;;;33.92;9.98;;;17.30;92.90;;;;;;5039369;28;20087;-87
2022/12/26 12:35:37;;;;;;;37.67;10.00;;;17.30;92.90;;;;;;5045855;28;20036;-89
2022/12/26 12:38:14;;;;;;;43.83;10.55;;;17.30;92.80;;;;;;5051418;28;20024;-89
2022/12/26 12:40:56;;;;;;;35.40;9.70;;;17.30;93.00;;;;;;5047773;28;20060;-87
2022/12/26 12:43:41;;;;;;;34.58;10.57;;;17.30;92.90;;;;;;5050665;28;20106;-87
2022/12/26 12:46:21;;;;;;;42.03;10.95;;;17.30;92.90;;;;;;5046124;28;20029;-88
2022/12/26 12:49:05;;;;;;;46.20;11.30;;;17.30;92.90;;;;;;5045893;28;20123;-87
2022/12/26 12:51:51;;;;;;;45.58;11.88;;;17.30;92.90;;;;;;5049077;28;20025;-85
2022/12/26 12:54:20;;;;;;;42.17;10.88;;;17.30;92.90;;;;;;5048770;28;20726;-87
2022/12/26 12:57:05;;;;;;;56.40;10.52;;;17.20;92.90;;;;;;5048834;28;20071;-89
2022/12/26 13:00:03;;;;;;;47.10;10.23;;;17.30;93.00;;;;;;5046201;28;20024;-88
2022/12/26 13:02:54;;;;;;;36.97;10.48;;;17.30;93.00;;;;;;5031031;28;20032;-88
2022/12/26 13:05:47;;;;;;;33.78;10.55;;;17.30;93.00;;;;;;5040824;28;20025;-87
2022/12/26 13:08:25;;;;;;;34.72;9.82;;;17.30;93.00;;;;;;5043205;28;20025;-89
2022/12/26 13:10:56;;;;;;;47.38;10.65;;;17.30;93.00;;;;;;5043864;28;20502;-87
2022/12/26 13:13:34;;;;;;;34.80;9.38;;;17.30;93.00;;;;;;5050618;28;20087;-85
2022/12/26 13:16:09;;;;;;;34.40;9.68;;;17.30;93.10;;;;;;5044263;28;20037;-86
2022/12/26 13:18:39;;;;;;;31.52;9.45;;;17.30;93.50;;;;;;5042767;28;20021;-87
2022/12/26 13:21:09;;;;;;;36.10;10.32;;;17.30;93.20;;;;;;5050120;28;20013;-88
2022/12/26 13:26:37;;;;;;;33.83;9.48;;;17.30;93.20;;;;;;5055849;28;20078;-88
2022/12/26 13:29:13;;;;;;;38.38;9.48;;;17.30;93.30;;;;;;5050142;28;20017;-86
2022/12/26 13:31:40;;;;;;;32.13;8.88;;;17.30;93.30;;;;;;5052219;28;20029;-85
2022/12/26 13:34:15;;;;;;;27.83;8.80;;;17.30;93.30;;;;;;5050982;28;20033;-87
2022/12/26 13:36:47;;;;;;;19.55;6.00;;;17.30;93.40;;;;;;5045622;28;20030;-85
2022/12/26 13:39:28;;;;;;;7.88;3.33;;;17.30;91.00;;;;;;5053700;28;20092;-87
2022/12/26 13:44:39;;;;;;;9.70;3.67;;;17.10;89.10;;;;;;5042311;28;20036;-90
2022/12/26 13:47:32;;;;;;;10.63;3.65;;;17.10;90.00;;;;;;5054127;28;20013;-89
2022/12/26 13:50:37;;;;;;;8.73;3.15;;;17.10;90.30;;;;;;5048535;28;20529;-88
2022/12/26 13:53:03;;;;;;;6.38;3.05;;;17.10;90.50;;;;;;5051653;28;20025;-89
2022/12/26 13:55:40;;;;;;;6.70;2.75;;;17.10;90.70;;;;;;5050366;28;20064;-89
2022/12/26 13:58:39;;;;;;;12.88;3.60;;;17.10;90.90;;;;;;5053207;28;20036;-90
2022/12/26 14:01:10;;;;;;;5.32;2.90;;;17.10;91.00;;;;;;5051144;28;20628;-89
2022/12/26 14:03:54;;;;;;;5.50;2.88;;;17.00;91.10;;;;;;5068529;28;20107;-89
2022/12/26 14:06:25;;;;;;;7.75;2.85;;;17.00;91.20;;;;;;5052725;28;20100;-90
2022/12/26 14:09:09;;;;;;;6.28;2.83;;;17.10;91.20;;;;;;5062718;28;20067;-90
2022/12/26 14:12:01;;;;;;;6.93;2.58;;;17.10;91.30;;;;;;5052985;28;20028;-90
2022/12/26 14:14:45;;;;;;;5.95;2.90;;;17.00;91.30;;;;;;5048766;28;20033;-90
2022/12/26 14:17:33;;;;;;;5.63;2.70;;;17.00;91.40;;;;;;5044276;28;20025;-89
2022/12/26 14:20:35;;;;;;;8.57;3.10;;;17.00;91.40;;;;;;5046737;28;20413;-89
2022/12/26 14:23:22;;;;;;;7.43;2.67;;;17.00;91.50;;;;;;5048437;28;20444;-90
2022/12/26 14:26:02;;;;;;;6.07;2.55;;;17.00;91.50;;;;;;5045331;28;20041;-90
2022/12/26 14:28:42;;;;;;;5.30;2.63;;;17.00;91.50;;;;;;5047967;28;20083;-89
2022/12/26 14:31:21;;;;;;;6.40;2.45;;;17.00;91.50;;;;;;5057596;28;20037;-89
2022/12/26 14:34:05;;;;;;;4.35;2.20;;;17.00;91.60;;;;;;5045282;28;20025;-89
2022/12/26 14:36:38;;;;;;;5.90;2.40;;;17.00;91.60;;;;;;5044676;28;20036;-91
2022/12/26 14:39:35;;;;;;;7.75;2.65;;;17.00;91.60;;;;;;5040933;28;20044;-89
2022/12/26 14:44:56;;;;;;;5.90;2.60;;;17.00;91.60;;;;;;5049764;28;20036;-89
2022/12/26 14:47:46;;;;;;;7.18;2.85;;;17.00;91.60;;;;;;5048910;28;20037;-89
2022/12/26 14:50:30;;;;;;;;;;;17.00;91.60;;;;;;5039363;28;20169;-88
2022/12/26 14:53:18;;;;;;;5.90;2.78;;;17.00;91.60;;;;;;5040567;28;19948;-88
2022/12/26 14:55:54;;;;;;;3.35;2.17;;;17.00;91.70;;;;;;5065728;28;20111;-89
2022/12/26 14:58:39;;;;;;;5.18;2.80;;;17.00;91.70;;;;;;5048205;28;20013;-87
2022/12/26 15:01:08;;;;;;;5.85;2.97;;;17.00;91.70;;;;;;5041700;28;20063;-88
2022/12/26 15:04:02;;;;;;;6.97;2.63;;;17.00;91.70;;;;;;5048172;28;20108;-88
2022/12/26 15:06:49;;;;;;;5.32;2.55;;;17.00;91.70;;;;;;5046817;28;20040;-84
2022/12/26 15:09:34;;;;;;;4.90;2.50;;;17.00;91.80;;;;;;5051196;28;20512;-86
2022/12/26 15:12:11;;;;;;;4.72;2.42;;;17.00;91.80;;;;;;5063690;28;20039;-89
2022/12/26 15:15:11;;;;;;;4.57;2.45;;;17.00;91.80;;;;;;5052670;28;20398;-89
2022/12/26 15:18:22;;;;;;;6.50;2.70;;;17.00;91.90;;;;;;5047092;28;20078;-89
2022/12/26 15:21:01;;;;;;;;;;;17.00;91.80;;;;;;5020489;28;20085;-89
2022/12/26 15:24:04;;;;;;;4.75;2.88;;;17.00;91.90;;;;;;5039896;28;20011;-90
2022/12/26 15:26:52;;;;;;;3.22;2.40;;;17.00;91.90;;;;;;5044426;28;20057;-89
2022/12/26 15:29:46;;;;;;;5.53;2.60;;;17.00;91.90;;;;;;5066435;28;20029;-90
2022/12/26 15:32:26;;;;;;;3.80;2.10;;;17.00;91.90;;;;;;5023067;28;20038;-88
2022/12/26 15:35:12;;;;;;;5.65;2.85;;;17.00;91.90;;;;;;5047437;28;20024;-88